Time;durP1;ratioP1;P1;durP2;ratioP2;P2;SDS_P1;SDS_P2;PMS_P1;PMS_P2;Temp;Humidity;BMP_temperature;BMP_pressure;BME280_temperature;BME280_humidity;BME280_pressure;Samples;Min_cycle;Max_cycle;Signal;HPM_P1;HPM_P2
2023/10/14 00:00:28;;;;;;;4.07;2.70;;;22.20;81.10;;;;;;5062023;28;20074;-71
2023/10/14 00:02:54;;;;;;;8.52;3.30;;;22.10;81.70;;;;;;5066558;28;20032;-71
2023/10/14 00:05:22;;;;;;;5.45;3.35;;;22.10;82.00;;;;;;5067216;28;20044;-70
2023/10/14 00:07:52;;;;;;;5.70;3.50;;;22.00;82.90;;;;;;5055626;28;20057;-70
2023/10/14 00:10:18;;;;;;;4.57;3.10;;;21.90;82.50;;;;;;5046961;28;20937;-70
2023/10/14 00:12:44;;;;;;;8.02;3.35;;;21.80;82.80;;;;;;5068334;28;20128;-71
2023/10/14 00:15:10;;;;;;;5.82;3.30;;;21.70;83.30;;;;;;5053448;28;20470;-71
2023/10/14 00:17:41;;;;;;;5.97;3.17;;;21.70;81.10;;;;;;5046442;28;20079;-70
2023/10/14 00:20:09;;;;;;;5.68;3.65;;;21.60;80.90;;;;;;5062886;28;20020;-70
2023/10/14 00:22:38;;;;;;;7.47;3.88;;;21.50;88.50;;;;;;5059773;28;20036;-70
2023/10/14 00:25:09;;;;;;;6.87;4.03;;;21.40;72.00;;;;;;5057756;28;20036;-70
2023/10/14 00:27:35;;;;;;;7.70;4.00;;;21.30;72.90;;;;;;5060248;28;20033;-70
2023/10/14 00:30:09;;;;;;;6.72;4.00;;;21.40;73.70;;;;;;5068306;28;20029;-70
2023/10/14 00:32:35;;;;;;;7.80;4.32;;;21.40;74.20;;;;;;5059602;28;20029;-70
2023/10/14 00:35:03;;;;;;;9.32;4.28;;;21.40;74.80;;;;;;5061721;28;20028;-71
2023/10/14 00:37:32;;;;;;;6.43;3.97;;;21.50;76.40;;;;;;5064500;28;20036;-70
2023/10/14 00:40:10;;;;;;;8.40;4.15;;;21.60;77.80;;;;;;5054979;28;20029;-70
2023/10/14 00:42:36;;;;;;;7.97;4.20;;;21.70;78.40;;;;;;5058595;28;20469;-70
2023/10/14 00:45:07;;;;;;;13.45;5.45;;;21.70;79.10;;;;;;5063887;28;20492;-70
2023/10/14 00:47:43;;;;;;;7.60;4.15;;;21.70;79.40;;;;;;5059192;28;20037;-70
2023/10/14 00:52:57;;;;;;;7.45;4.10;;;21.80;79.10;;;;;;5060575;28;20461;-70
2023/10/14 00:55:42;;;;;;;7.70;4.70;;;21.80;78.90;;;;;;5061116;28;20562;-70
2023/10/14 00:58:08;;;;;;;10.93;3.97;;;21.90;78.60;;;;;;5051017;28;20029;-70
2023/10/14 01:00:37;;;;;;;9.57;5.07;;;21.90;79.00;;;;;;5052351;28;20041;-70
2023/10/14 01:03:09;;;;;;;7.18;4.47;;;21.90;79.80;;;;;;5062995;28;20035;-70
2023/10/14 01:05:38;;;;;;;10.82;5.13;;;21.80;81.10;;;;;;5063529;28;20029;-70
2023/10/14 01:08:11;;;;;;;22.25;5.55;;;21.80;83.10;;;;;;5052799;28;20033;-70
2023/10/14 01:10:37;;;;;;;10.38;5.28;;;21.70;85.50;;;;;;5040043;28;20105;-70
2023/10/14 01:13:07;;;;;;;14.23;5.43;;;21.60;86.10;;;;;;5037639;28;20040;-70
2023/10/14 01:15:34;;;;;;;16.83;5.80;;;21.50;87.10;;;;;;5065274;28;20703;-71
2023/10/14 01:18:01;;;;;;;9.98;5.65;;;21.50;87.90;;;;;;5055250;28;20025;-70
2023/10/14 01:20:35;;;;;;;10.13;6.10;;;21.40;88.60;;;;;;5064319;28;20028;-70
2023/10/14 01:23:07;;;;;;;16.42;6.28;;;21.30;89.20;;;;;;5054278;28;20063;-70
2023/10/14 01:25:41;;;;;;;7.80;5.35;;;21.20;90.10;;;;;;5055549;28;20029;-70
2023/10/14 01:28:15;;;;;;;11.25;6.25;;;21.10;90.30;;;;;;5063961;28;20505;-70
2023/10/14 01:31:34;;;;;;;11.32;5.40;;;21.00;90.70;;;;;;5072066;28;20029;-70
2023/10/14 01:34:05;;;;;;;7.68;5.13;;;20.90;91.00;;;;;;5049809;28;20029;-70
2023/10/14 01:36:41;;;;;;;11.52;5.97;;;20.90;91.30;;;;;;5067700;28;20521;-70
2023/10/14 01:39:14;;;;;;;11.45;5.57;;;20.70;91.60;;;;;;5060737;28;20036;-70
2023/10/14 01:41:39;;;;;;;11.57;5.80;;;20.70;97.50;;;;;;5051714;28;20031;-70
2023/10/14 01:44:05;;;;;;;12.55;5.78;;;20.70;98.20;;;;;;5055335;28;20021;-70
2023/10/14 01:46:34;;;;;;;10.27;6.10;;;20.70;98.30;;;;;;5070621;28;20055;-70
2023/10/14 01:49:10;;;;;;;8.30;5.72;;;20.60;98.50;;;;;;5062596;28;20076;-70
2023/10/14 01:51:36;;;;;;;7.32;6.05;;;20.70;98.60;;;;;;5048949;28;20036;-70
2023/10/14 01:54:03;;;;;;;10.05;6.30;;;20.60;98.90;;;;;;5061322;28;20031;-70
2023/10/14 01:56:30;;;;;;;11.43;5.97;;;20.50;99.30;;;;;;5072565;28;20366;-70
2023/10/14 01:58:59;;;;;;;8.40;6.05;;;20.50;99.40;;;;;;5060381;28;20453;-70
2023/10/14 02:01:26;;;;;;;9.77;5.57;;;20.40;99.30;;;;;;5063273;28;20052;-70
2023/10/14 02:03:54;;;;;;;9.50;5.95;;;20.40;99.10;;;;;;5069008;28;20020;-70
2023/10/14 02:06:30;;;;;;;8.63;5.88;;;20.40;99.10;;;;;;5062934;28;20044;-70
2023/10/14 02:08:58;;;;;;;11.98;6.03;;;20.30;99.40;;;;;;5048451;28;20032;-70
2023/10/14 02:11:24;;;;;;;8.90;6.05;;;20.20;99.50;;;;;;5062457;28;20056;-70
2023/10/14 02:13:51;;;;;;;9.88;5.47;;;20.20;99.20;;;;;;5054776;28;20024;-70
2023/10/14 02:16:18;;;;;;;9.85;5.40;;;20.20;99.00;;;;;;5056675;28;20297;-70
2023/10/14 02:18:44;;;;;;;10.95;6.13;;;20.20;99.20;;;;;;5067675;28;20032;-71
2023/10/14 02:21:16;;;;;;;14.88;6.32;;;20.20;99.10;;;;;;5069527;28;20097;-70
2023/10/14 02:23:47;;;;;;;10.70;6.13;;;20.20;99.30;;;;;;5043259;28;20075;-70
2023/10/14 02:26:30;;;;;;;11.63;5.65;;;20.10;99.20;;;;;;5059002;28;20044;-70
2023/10/14 02:28:57;;;;;;;13.73;5.85;;;20.10;99.20;;;;;;5068359;28;20102;-70
2023/10/14 02:33:59;;;;;;;9.32;5.70;;;20.20;99.20;;;;;;5057339;28;20021;-71
2023/10/14 02:36:29;;;;;;;10.13;5.93;;;20.20;99.20;;;;;;5065801;28;20028;-70
2023/10/14 02:38:58;;;;;;;10.02;6.07;;;20.10;99.20;;;;;;5058468;28;20044;-71
2023/10/14 02:41:31;;;;;;;11.02;6.10;;;20.20;99.20;;;;;;5055584;28;20024;-70
2023/10/14 02:44:44;;;;;;;11.07;6.00;;;20.20;99.00;;;;;;5059137;28;20021;-70
2023/10/14 02:46:47;;;;;;;10.80;6.13;;;20.30;99.10;;;;;;5054201;28;20431;-70
2023/10/14 02:49:19;;;;;;;17.65;6.30;;;20.30;99.10;;;;;;5059757;28;20056;-70
2023/10/14 02:51:45;;;;;;;8.10;5.88;;;20.20;99.10;;;;;;5051510;28;20024;-70
2023/10/14 02:54:15;;;;;;;9.30;5.90;;;20.20;99.20;;;;;;5061100;28;20043;-71
2023/10/14 02:59:20;;;;;;;11.07;6.30;;;20.30;99.20;;;;;;5059124;28;20094;-70
2023/10/14 03:02:48;;;;;;;12.13;5.85;;;20.30;99.10;;;;;;5060722;28;20390;-70
2023/10/14 03:04:40;;;;;;;12.02;6.03;;;20.40;99.20;;;;;;5055982;28;20394;-70
2023/10/14 03:07:09;;;;;;;10.00;6.15;;;20.40;99.20;;;;;;5057957;28;20070;-71
2023/10/14 03:09:35;;;;;;;9.73;5.68;;;20.40;99.20;;;;;;5050537;28;20068;-70
2023/10/14 03:12:01;;;;;;;11.30;5.88;;;20.30;99.30;;;;;;5067604;28;20048;-70
2023/10/14 03:14:28;;;;;;;14.45;5.57;;;20.40;99.40;;;;;;5061443;28;20029;-70
2023/10/14 03:16:53;;;;;;;8.77;5.90;;;20.40;99.30;;;;;;5061789;28;20071;-70
2023/10/14 03:19:19;;;;;;;12.13;6.75;;;20.40;99.50;;;;;;5063170;28;20064;-70
2023/10/14 03:21:58;;;;;;;13.32;5.85;;;20.50;99.10;;;;;;5064809;28;20474;-70
2023/10/14 03:24:26;;;;;;;10.73;5.72;;;20.50;99.10;;;;;;5047389;28;20028;-70
2023/10/14 03:26:58;;;;;;;9.63;6.35;;;20.50;99.20;;;;;;5063707;28;20140;-70
2023/10/14 03:29:25;;;;;;;11.15;5.63;;;20.50;99.30;;;;;;5064546;28;20410;-70
2023/10/14 03:31:52;;;;;;;7.05;5.60;;;20.50;99.10;;;;;;5049625;28;20029;-70
2023/10/14 03:34:18;;;;;;;11.25;6.43;;;20.40;99.20;;;;;;5053265;28;20025;-70
2023/10/14 03:36:43;;;;;;;11.77;6.15;;;20.50;99.20;;;;;;5065865;28;20329;-70
2023/10/14 03:39:28;;;;;;;13.00;6.22;;;20.50;99.30;;;;;;5063930;28;20033;-70
2023/10/14 03:41:54;;;;;;;10.95;5.65;;;20.50;99.40;;;;;;5044029;28;20462;-71
2023/10/14 03:44:23;;;;;;;11.48;6.05;;;20.40;99.50;;;;;;5059568;28;20028;-70
2023/10/14 03:46:59;;;;;;;11.15;6.30;;;20.40;99.60;;;;;;5067530;28;20466;-71
2023/10/14 03:49:25;;;;;;;12.27;5.93;;;20.50;99.50;;;;;;5057663;28;20067;-70
2023/10/14 03:51:56;;;;;;;12.80;6.05;;;20.40;99.60;;;;;;5055600;28;20072;-69
2023/10/14 03:54:26;;;;;;;6.72;5.72;;;20.50;99.60;;;;;;5060462;28;20029;-70
2023/10/14 03:56:52;;;;;;;11.65;6.20;;;20.40;99.60;;;;;;5060676;28;20029;-70
2023/10/14 03:59:21;;;;;;;12.95;6.80;;;20.40;99.70;;;;;;5056894;28;20111;-70
2023/10/14 04:01:46;;;;;;;14.60;7.22;;;20.40;99.60;;;;;;5041942;28;20032;-70
2023/10/14 04:04:18;;;;;;;13.77;6.07;;;20.30;99.70;;;;;;5066819;28;20024;-70
2023/10/14 04:06:52;;;;;;;8.02;6.00;;;20.30;99.80;;;;;;5058347;28;20102;-70
2023/10/14 04:09:24;;;;;;;11.25;5.97;;;20.30;99.90;;;;;;5046393;28;20021;-70
2023/10/14 04:11:52;;;;;;;9.38;5.88;;;20.30;99.90;;;;;;5062680;28;20025;-70
2023/10/14 04:14:22;;;;;;;11.52;6.90;;;20.30;99.90;;;;;;5066519;28;20016;-70
2023/10/14 04:16:49;;;;;;;14.40;7.07;;;20.20;99.90;;;;;;5060287;28;20044;-70
2023/10/14 04:22:00;;;;;;;9.93;5.88;;;20.30;99.90;;;;;;5062116;28;20437;-70
2023/10/14 04:29:51;;;;;;;15.93;6.22;;;20.30;99.90;;;;;;5063225;28;20031;-70
2023/10/14 04:32:41;;;;;;;10.73;6.88;;;20.30;99.80;;;;;;5042651;28;20675;-70
2023/10/14 04:35:07;;;;;;;11.75;5.70;;;20.30;99.60;;;;;;5053854;28;20024;-71
2023/10/14 04:37:50;;;;;;;12.75;6.03;;;20.20;99.60;;;;;;5062695;28;20090;-71
2023/10/14 04:40:24;;;;;;;13.60;6.60;;;20.30;99.60;;;;;;5060278;28;20593;-70
2023/10/14 04:42:50;;;;;;;12.82;5.57;;;20.30;99.90;;;;;;5053837;28;20040;-70
2023/10/14 04:45:16;;;;;;;10.85;5.20;;;20.20;99.90;;;;;;5061571;28;20028;-70
2023/10/14 04:47:47;;;;;;;8.65;5.05;;;19.80;99.90;;;;;;5060633;28;20029;-70
2023/10/14 04:50:21;;;;;;;9.30;5.40;;;19.20;99.90;;;;;;5052820;28;20102;-70
2023/10/14 04:52:49;;;;;;;13.88;5.53;;;18.60;99.90;;;;;;5062773;28;20017;-70
2023/10/14 04:55:28;;;;;;;9.73;6.07;;;18.00;99.90;;;;;;5061976;28;20036;-69
2023/10/14 05:00:56;;;;;;;10.30;6.00;;;17.20;99.90;;;;;;5017656;28;20083;-69
2023/10/14 05:03:22;;;;;;;10.15;6.28;;;17.00;99.90;;;;;;5048019;28;20060;-70
2023/10/14 05:05:55;;;;;;;9.40;5.65;;;16.80;99.90;;;;;;5060527;28;20485;-69
2023/10/14 05:08:22;;;;;;;9.18;6.45;;;16.80;99.90;;;;;;5061775;28;20155;-70
2023/10/14 05:10:52;;;;;;;11.48;7.20;;;16.70;99.90;;;;;;5067231;28;20098;-69
2023/10/14 05:13:31;;;;;;;15.55;7.35;;;16.70;99.90;;;;;;5069937;28;20029;-69
2023/10/14 05:16:20;;;;;;;10.93;6.90;;;16.70;99.90;;;;;;5059680;28;20025;-70
2023/10/14 05:19:07;;;;;;;13.95;6.55;;;16.80;99.90;;;;;;5069191;28;20037;-69
2023/10/14 05:21:36;;;;;;;11.25;6.75;;;16.90;99.90;;;;;;5066734;28;20020;-69
2023/10/14 05:24:05;;;;;;;13.07;7.07;;;16.90;99.90;;;;;;5057967;28;20040;-70
2023/10/14 05:26:35;;;;;;;9.73;6.80;;;17.00;99.90;;;;;;5066061;28;20653;-70
2023/10/14 05:29:11;;;;;;;11.93;7.40;;;17.00;99.90;;;;;;5057362;28;20108;-70
2023/10/14 05:31:37;;;;;;;11.70;6.43;;;17.00;99.90;;;;;;5055708;28;20036;-69
2023/10/14 05:34:04;;;;;;;14.95;6.80;;;16.90;99.90;;;;;;5056315;28;20029;-69
2023/10/14 05:36:32;;;;;;;13.10;6.97;;;16.90;99.90;;;;;;5057190;28;20078;-70
2023/10/14 05:38:57;;;;;;;8.75;5.82;;;16.90;99.90;;;;;;5057491;28;20023;-69
2023/10/14 05:41:23;;;;;;;12.95;6.57;;;16.90;99.90;;;;;;5056252;28;20251;-69
2023/10/14 05:43:51;;;;;;;9.63;6.30;;;16.90;99.90;;;;;;5057047;28;20458;-69
2023/10/14 05:46:16;;;;;;;8.63;6.55;;;16.90;99.90;;;;;;5056361;28;20048;-70
2023/10/14 05:48:42;;;;;;;9.80;5.82;;;16.90;99.90;;;;;;5047564;28;20057;-70
2023/10/14 05:51:08;;;;;;;7.68;5.90;;;16.90;99.90;;;;;;5055071;28;20028;-70
2023/10/14 05:53:33;;;;;;;7.82;6.15;;;16.90;99.90;;;;;;5057158;28;20033;-70
2023/10/14 05:56:09;;;;;;;8.82;6.05;;;16.90;99.90;;;;;;5054030;28;20028;-70
2023/10/14 05:58:36;;;;;;;11.68;5.95;;;16.90;99.90;;;;;;5054001;28;20108;-67
2023/10/14 06:01:10;;;;;;;11.88;6.75;;;17.00;99.90;;;;;;5060708;28;20385;-64
2023/10/14 06:03:37;;;;;;;9.43;5.90;;;17.00;99.90;;;;;;5035226;28;20025;-63
2023/10/14 06:06:05;;;;;;;11.90;6.22;;;17.00;99.90;;;;;;5061697;28;20024;-64
2023/10/14 06:08:32;;;;;;;11.02;6.35;;;17.00;99.90;;;;;;5062876;28;20029;-63
2023/10/14 06:10:59;;;;;;;9.57;6.38;;;17.10;99.90;;;;;;5055390;28;20021;-64
2023/10/14 06:13:27;;;;;;;9.80;6.00;;;17.10;99.90;;;;;;5057245;28;20442;-64
2023/10/14 06:15:53;;;;;;;11.60;6.55;;;17.10;99.90;;;;;;5052173;28;20087;-64
2023/10/14 06:18:18;;;;;;;12.77;6.82;;;17.20;99.90;;;;;;5054332;28;20029;-65
2023/10/14 06:20:47;;;;;;;9.30;5.57;;;17.20;99.90;;;;;;5054385;28;20496;-65
2023/10/14 06:23:13;;;;;;;9.55;5.32;;;17.20;99.90;;;;;;5050757;28;20091;-65
2023/10/14 06:25:39;;;;;;;11.20;5.88;;;17.30;99.90;;;;;;5055278;28;20053;-65
2023/10/14 06:28:07;;;;;;;11.48;5.68;;;17.40;99.90;;;;;;5052033;28;20048;-65
2023/10/14 06:30:33;;;;;;;7.45;5.63;;;17.40;99.90;;;;;;5045452;28;20104;-64
2023/10/14 06:33:03;;;;;;;10.15;5.40;;;17.50;99.90;;;;;;5053048;28;20112;-64
2023/10/14 06:35:44;;;;;;;8.82;5.45;;;17.50;99.90;;;;;;5053441;28;20021;-64
2023/10/14 06:38:11;;;;;;;11.48;5.90;;;17.60;99.90;;;;;;5052405;28;20049;-64
2023/10/14 06:40:37;;;;;;;9.50;5.05;;;17.60;99.90;;;;;;5053679;28;20017;-64
2023/10/14 06:43:09;;;;;;;12.35;5.75;;;17.60;99.90;;;;;;5054208;28;20094;-64
2023/10/14 06:45:35;;;;;;;7.03;5.43;;;17.70;99.90;;;;;;5051090;28;20107;-64
2023/10/14 06:48:03;;;;;;;8.20;5.07;;;17.70;99.90;;;;;;5051881;28;20053;-68
2023/10/14 06:50:30;;;;;;;8.85;5.30;;;17.70;99.90;;;;;;5049159;28;20044;-65
2023/10/14 06:52:59;;;;;;;8.25;4.40;;;17.80;99.90;;;;;;5052469;28;20029;-65
2023/10/14 06:55:45;;;;;;;10.57;5.40;;;17.80;99.90;;;;;;5050810;28;20025;-65
2023/10/14 06:58:13;;;;;;;9.70;4.30;;;17.90;99.90;;;;;;5045064;28;20363;-64
2023/10/14 07:00:40;;;;;;;8.23;4.32;;;18.00;99.90;;;;;;5056342;28;20060;-64
2023/10/14 07:03:07;;;;;;;7.22;4.15;;;18.00;99.90;;;;;;5046303;28;20048;-64
2023/10/14 07:05:56;;;;;;;9.57;4.63;;;18.00;99.90;;;;;;5059952;28;20044;-64
2023/10/14 07:08:23;;;;;;;7.82;4.40;;;18.00;99.90;;;;;;5058458;28;20041;-64
2023/10/14 07:10:50;;;;;;;9.20;3.97;;;18.10;99.90;;;;;;5045777;28;20497;-64
2023/10/14 07:13:17;;;;;;;8.93;4.07;;;18.10;99.90;;;;;;5048721;28;20031;-65
2023/10/14 07:15:44;;;;;;;7.47;4.20;;;18.30;99.90;;;;;;5057429;28;20079;-67
2023/10/14 07:18:13;;;;;;;5.63;3.63;;;18.50;99.90;;;;;;5056654;28;20037;-64
2023/10/14 07:20:39;;;;;;;4.60;3.53;;;18.60;99.90;;;;;;5057452;28;20020;-68
2023/10/14 07:23:07;;;;;;;7.85;4.03;;;18.80;99.90;;;;;;5059009;28;20032;-68
2023/10/14 07:25:34;;;;;;;11.02;4.20;;;19.00;99.90;;;;;;5062434;28;20068;-70
2023/10/14 07:28:06;;;;;;;6.68;3.08;;;19.20;99.90;;;;;;5058246;28;20063;-68
2023/10/14 07:30:34;;;;;;;8.57;3.08;;;19.50;99.90;;;;;;5051333;28;20479;-67
2023/10/14 07:33:01;;;;;;;6.32;3.15;;;19.70;99.90;;;;;;5059743;28;20047;-71
2023/10/14 07:35:27;;;;;;;6.32;2.70;;;19.90;99.90;;;;;;5058258;28;20471;-70
2023/10/14 07:37:53;;;;;;;5.95;2.97;;;19.90;99.90;;;;;;5056183;28;20025;-70
2023/10/14 07:40:22;;;;;;;5.63;2.60;;;20.00;99.90;;;;;;5053356;28;20095;-73
2023/10/14 07:42:56;;;;;;;6.03;3.20;;;20.00;99.90;;;;;;5058848;28;20031;-70
2023/10/14 07:45:28;;;;;;;9.65;3.50;;;20.00;99.90;;;;;;5054255;28;20034;-68
2023/10/14 07:47:54;;;;;;;8.93;2.75;;;20.00;99.90;;;;;;5056003;28;20445;-70
2023/10/14 07:50:20;;;;;;;9.77;3.35;;;20.10;99.90;;;;;;5056085;28;20091;-70
2023/10/14 07:52:45;;;;;;;5.47;2.40;;;20.20;99.90;;;;;;5062681;28;20020;-70
2023/10/14 07:55:15;;;;;;;6.88;2.70;;;20.20;99.90;;;;;;5058180;28;20092;-67
2023/10/14 07:57:46;;;;;;;2.80;2.30;;;20.20;99.90;;;;;;5061161;28;20025;-68
2023/10/14 08:00:12;;;;;;;7.35;2.95;;;20.20;99.90;;;;;;5059462;28;20073;-69
2023/10/14 08:02:43;;;;;;;6.25;2.80;;;20.10;99.90;;;;;;5059838;28;20078;-70
2023/10/14 08:05:09;;;;;;;;;;;20.00;99.90;;;;;;5057105;28;20031;-70
2023/10/14 08:07:40;;;;;;;4.30;2.60;;;20.00;99.90;;;;;;5061599;28;19920;-71
2023/10/14 08:10:17;;;;;;;6.57;2.78;;;19.90;99.90;;;;;;5059386;28;20488;-69
2023/10/14 08:12:44;;;;;;;4.55;2.28;;;19.90;99.90;;;;;;5058352;28;20116;-69
2023/10/14 08:15:10;;;;;;;7.03;2.92;;;19.80;99.90;;;;;;5054927;28;20017;-71
2023/10/14 08:17:36;;;;;;;5.80;2.33;;;19.80;99.90;;;;;;5050901;28;20378;-72
2023/10/14 08:20:12;;;;;;;4.32;2.30;;;19.70;99.90;;;;;;5057956;28;20020;-72
2023/10/14 08:22:41;;;;;;;5.88;2.85;;;19.70;99.90;;;;;;5056426;28;20074;-72
2023/10/14 08:25:07;;;;;;;6.97;3.08;;;19.80;99.90;;;;;;5059791;28;20029;-72
2023/10/14 08:27:34;;;;;;;7.80;3.22;;;19.80;99.90;;;;;;5058242;28;20068;-73
2023/10/14 08:30:00;;;;;;;8.05;3.00;;;20.00;99.90;;;;;;5056066;28;20020;-73
2023/10/14 08:32:26;;;;;;;6.63;2.13;;;20.00;99.90;;;;;;5057638;28;20033;-74
2023/10/14 08:34:52;;;;;;;5.72;2.35;;;20.20;99.90;;;;;;5055421;28;20021;-75
2023/10/14 08:37:18;;;;;;;5.05;2.33;;;20.20;99.90;;;;;;5057754;28;20035;-76
2023/10/14 08:39:44;;;;;;;2.05;1.60;;;20.20;99.90;;;;;;5059822;28;20025;-76
2023/10/14 08:42:10;;;;;;;4.25;2.17;;;20.30;99.90;;;;;;5053297;28;20021;-75
2023/10/14 08:44:42;;;;;;;2.75;1.80;;;20.40;99.90;;;;;;5060228;28;20017;-70
2023/10/14 08:47:13;;;;;;;4.32;1.63;;;20.50;99.90;;;;;;5056405;28;20044;-75
2023/10/14 08:49:41;;;;;;;4.82;1.88;;;20.70;99.90;;;;;;5040623;28;20040;-76
2023/10/14 08:52:09;;;;;;;3.15;1.77;;;20.80;99.90;;;;;;5056942;28;20442;-76
2023/10/14 08:54:37;;;;;;;2.13;1.65;;;20.90;99.90;;;;;;5057115;28;20454;-75
2023/10/14 08:57:03;;;;;;;3.58;1.52;;;21.00;99.90;;;;;;5057837;28;20033;-75
2023/10/14 08:59:28;;;;;;;4.45;1.73;;;21.00;99.90;;;;;;5058730;28;20021;-75
2023/10/14 09:01:56;;;;;;;2.30;1.67;;;21.20;99.90;;;;;;5054239;28;20461;-78
2023/10/14 09:04:29;;;;;;;6.05;1.70;;;21.40;99.90;;;;;;5041063;28;20078;-76
2023/10/14 09:07:04;;;;;;;3.10;1.45;;;21.70;99.90;;;;;;5058162;28;20036;-77
2023/10/14 09:09:32;;;;;;;3.45;1.50;;;21.90;99.90;;;;;;5055780;28;20028;-76
2023/10/14 09:12:10;;;;;;;4.65;1.73;;;21.90;99.90;;;;;;5057014;28;20104;-76
2023/10/14 09:14:37;;;;;;;3.83;1.60;;;22.10;99.90;;;;;;5053924;28;20043;-76
2023/10/14 09:17:08;;;;;;;3.17;0.60;;;22.10;99.90;;;;;;5058480;28;20024;-76
2023/10/14 09:19:47;;;;;;;1.38;0.80;;;21.50;99.90;;;;;;5055462;28;20040;-74
2023/10/14 09:22:24;;;;;;;1.40;0.65;;;20.80;99.90;;;;;;5055508;28;20028;-74
2023/10/14 09:24:54;;;;;;;1.30;0.50;;;20.40;99.90;;;;;;5054741;28;20112;-76
2023/10/14 09:27:20;;;;;;;1.52;0.40;;;19.80;99.90;;;;;;5053548;28;20068;-76
2023/10/14 09:29:46;;;;;;;3.35;0.70;;;19.10;99.90;;;;;;5056205;28;20028;-74
2023/10/14 09:32:13;;;;;;;2.90;0.80;;;18.20;99.90;;;;;;5057174;28;20539;-76
2023/10/14 09:34:42;;;;;;;1.00;0.60;;;17.50;99.90;;;;;;5060447;28;20466;-68
2023/10/14 09:37:12;;;;;;;1.45;0.70;;;16.90;99.90;;;;;;5057062;28;20020;-75
2023/10/14 09:39:41;;;;;;;1.23;0.68;;;16.40;99.90;;;;;;5057287;28;20029;-76
2023/10/14 09:42:11;;;;;;;1.95;1.10;;;16.10;99.90;;;;;;5057746;28;20021;-76
2023/10/14 09:44:47;;;;;;;2.40;1.40;;;15.90;99.90;;;;;;5056742;28;20025;-76
2023/10/14 09:47:14;;;;;;;1.48;1.33;;;15.60;99.90;;;;;;5051892;28;20541;-76
2023/10/14 09:49:43;;;;;;;2.00;1.30;;;15.40;99.90;;;;;;5059144;28;20052;-75
2023/10/14 09:52:14;;;;;;;2.05;1.10;;;15.30;99.90;;;;;;5059927;28;20050;-77
2023/10/14 09:54:41;;;;;;;3.00;1.15;;;15.30;99.90;;;;;;5053123;28;20021;-73
2023/10/14 09:57:10;;;;;;;2.35;0.98;;;15.30;99.90;;;;;;5065201;28;20033;-72
2023/10/14 09:59:40;;;;;;;1.58;1.10;;;15.30;99.90;;;;;;5064437;28;20024;-74
2023/10/14 10:02:09;;;;;;;1.08;0.98;;;15.30;99.90;;;;;;5060901;28;20031;-74
2023/10/14 10:04:38;;;;;;;1.50;1.02;;;15.40;99.90;;;;;;5067333;28;20389;-74
2023/10/14 10:07:26;;;;;;;1.85;0.73;;;15.50;99.90;;;;;;5067777;28;20044;-75
2023/10/14 10:10:10;;;;;;;2.15;0.88;;;15.90;99.90;;;;;;5052013;28;20026;-75
2023/10/14 10:12:37;;;;;;;1.27;0.57;;;16.10;99.90;;;;;;5059236;28;20042;-76
2023/10/14 10:15:06;;;;;;;2.35;0.80;;;16.20;99.90;;;;;;5060996;28;20030;-75
2023/10/14 10:17:34;;;;;;;1.52;0.50;;;16.40;99.90;;;;;;5063483;28;20086;-71
2023/10/14 10:20:09;;;;;;;0.77;0.77;;;16.60;99.90;;;;;;5055620;28;20017;-75
2023/10/14 10:22:52;;;;;;;1.00;0.40;;;16.60;99.90;;;;;;5071365;28;20031;-76
2023/10/14 10:25:47;;;;;;;0.65;0.50;;;16.70;99.90;;;;;;5054662;28;20581;-79
2023/10/14 10:28:27;;;;;;;1.30;0.63;;;16.70;99.90;;;;;;5031715;28;20053;-71
2023/10/14 10:30:54;;;;;;;;;;;16.70;99.90;;;;;;5051313;28;20025;-72
2023/10/14 10:33:22;;;;;;;1.27;0.40;;;16.70;99.90;;;;;;5060217;28;20277;-72
2023/10/14 10:36:03;;;;;;;0.80;0.80;;;16.70;99.90;;;;;;5051623;28;20468;-72
2023/10/14 10:38:32;;;;;;;1.08;0.60;;;16.80;99.90;;;;;;5051276;28;20071;-72
2023/10/14 10:41:16;;;;;;;1.95;0.65;;;16.90;99.90;;;;;;5055489;28;20025;-72
2023/10/14 10:43:46;;;;;;;1.55;0.80;;;17.00;99.90;;;;;;5042237;28;20036;-67
2023/10/14 10:46:30;;;;;;;1.55;0.57;;;17.20;99.90;;;;;;5062052;28;20478;-66
2023/10/14 10:48:56;;;;;;;0.40;0.40;;;17.20;99.90;;;;;;5061076;28;20048;-67
2023/10/14 10:51:29;;;;;;;0.60;0.60;;;17.10;99.90;;;;;;5057666;28;20162;-69
2023/10/14 10:53:55;;;;;;;2.35;1.02;;;16.90;99.90;;;;;;5058729;28;20497;-70
2023/10/14 10:56:21;;;;;;;0.75;0.55;;;16.70;99.90;;;;;;5067335;28;20041;-69
2023/10/14 10:58:47;;;;;;;1.20;0.73;;;16.60;99.90;;;;;;5062468;28;20039;-73
2023/10/14 11:01:14;;;;;;;0.95;0.55;;;16.40;99.90;;;;;;5059069;28;20028;-73
2023/10/14 11:03:42;;;;;;;0.60;0.60;;;16.30;99.90;;;;;;5043903;28;20466;-70
2023/10/14 11:06:13;;;;;;;0.90;0.60;;;16.20;99.90;;;;;;5045892;28;20497;-71
2023/10/14 11:08:39;;;;;;;1.00;0.80;;;16.20;99.90;;;;;;5060724;28;20043;-69
2023/10/14 11:11:07;;;;;;;0.55;0.55;;;16.20;99.90;;;;;;5065776;28;20033;-69
2023/10/14 11:13:36;;;;;;;1.55;0.80;;;16.00;99.90;;;;;;5064913;28;20020;-67
2023/10/14 11:16:11;;;;;;;1.60;0.60;;;15.90;99.90;;;;;;5060282;28;20415;-66
2023/10/14 11:18:45;;;;;;;2.00;0.77;;;15.70;99.90;;;;;;5061228;28;20444;-66
2023/10/14 11:21:12;;;;;;;1.85;0.90;;;15.50;99.90;;;;;;5063702;28;20033;-66
2023/10/14 11:23:39;;;;;;;3.60;0.85;;;15.30;99.90;;;;;;5053984;28;20021;-69
2023/10/14 11:26:11;;;;;;;1.60;0.80;;;15.10;99.90;;;;;;5055413;28;20040;-68
2023/10/14 11:28:38;;;;;;;0.70;0.60;;;15.00;99.90;;;;;;5066864;28;20036;-68
2023/10/14 11:31:07;;;;;;;1.35;0.60;;;14.80;99.90;;;;;;5048952;28;20035;-68
2023/10/14 11:33:35;;;;;;;1.67;0.90;;;14.60;99.90;;;;;;5044482;28;20024;-70
2023/10/14 11:36:02;;;;;;;2.15;0.80;;;14.50;99.90;;;;;;5051837;28;20359;-69
2023/10/14 11:38:30;;;;;;;1.63;0.95;;;14.50;99.90;;;;;;5069150;28;20478;-67
2023/10/14 11:40:58;;;;;;;1.25;0.93;;;14.50;99.90;;;;;;5055586;28;20428;-68
2023/10/14 11:43:24;;;;;;;2.17;0.80;;;14.60;99.90;;;;;;5050919;28;20033;-67
2023/10/14 11:45:54;;;;;;;3.47;0.70;;;14.70;99.90;;;;;;5051911;28;20625;-64
2023/10/14 11:48:28;;;;;;;0.68;0.68;;;14.80;99.90;;;;;;5057623;28;20061;-64
2023/10/14 11:51:02;;;;;;;1.23;0.60;;;14.80;99.90;;;;;;5057252;28;20462;-64
2023/10/14 11:53:32;;;;;;;1.48;0.80;;;14.90;99.90;;;;;;5057562;28;20033;-64
2023/10/14 11:56:01;;;;;;;;;;;14.90;99.90;;;;;;5069261;28;20378;-64
2023/10/14 11:58:29;;;;;;;2.33;0.52;;;14.90;99.90;;;;;;5060573;28;19912;-63
2023/10/14 12:00:55;;;;;;;3.22;0.73;;;14.80;99.90;;;;;;5057463;28;20020;-64
2023/10/14 12:03:25;;;;;;;1.02;0.60;;;14.70;99.90;;;;;;5039819;28;20065;-64
2023/10/14 12:05:57;;;;;;;0.93;0.73;;;14.50;99.90;;;;;;5052405;28;20032;-64
2023/10/14 12:08:30;;;;;;;1.13;0.80;;;14.40;99.90;;;;;;5056575;28;20037;-64
2023/10/14 12:10:59;;;;;;;2.05;0.90;;;14.30;99.90;;;;;;5045984;28;20077;-64
2023/10/14 12:13:27;;;;;;;1.65;0.90;;;14.30;99.90;;;;;;5062875;28;20040;-64
2023/10/14 12:15:53;;;;;;;1.55;0.80;;;14.30;99.90;;;;;;5054077;28;20100;-64
2023/10/14 12:18:20;;;;;;;0.80;0.80;;;14.30;99.90;;;;;;5059576;28;20900;-65
2023/10/14 12:20:48;;;;;;;4.18;0.60;;;14.20;99.90;;;;;;5066960;28;20067;-65
2023/10/14 12:23:18;;;;;;;2.58;0.75;;;14.20;99.90;;;;;;5056246;28;20031;-66
2023/10/14 12:25:48;;;;;;;1.05;1.00;;;14.10;99.90;;;;;;5056878;28;20025;-64
2023/10/14 12:28:25;;;;;;;2.13;1.55;;;14.00;99.90;;;;;;5063475;28;20048;-65
2023/10/14 12:30:51;;;;;;;1.58;1.17;;;14.10;99.90;;;;;;5069421;28;20035;-65
2023/10/14 12:33:20;;;;;;;3.72;1.40;;;14.00;99.90;;;;;;5048820;28;20021;-65
2023/10/14 12:35:51;;;;;;;2.00;1.50;;;13.90;99.90;;;;;;5058670;28;20378;-66
2023/10/14 12:38:20;;;;;;;1.38;1.17;;;13.90;99.90;;;;;;5068245;28;20017;-65
2023/10/14 12:40:49;;;;;;;2.45;1.20;;;13.90;99.90;;;;;;5058163;28;20037;-66
2023/10/14 12:43:27;;;;;;;1.42;0.85;;;13.90;99.90;;;;;;5057138;28;20039;-65
2023/10/14 12:45:59;;;;;;;1.70;0.73;;;14.00;99.90;;;;;;5063915;28;20158;-66
2023/10/14 12:48:25;;;;;;;2.15;0.70;;;14.10;99.90;;;;;;5056984;28;20052;-65
2023/10/14 12:50:51;;;;;;;1.25;0.80;;;14.00;99.90;;;;;;5056588;28;20350;-66
2023/10/14 12:53:17;;;;;;;1.35;1.10;;;13.90;99.90;;;;;;5058083;28;20476;-66
2023/10/14 12:55:44;;;;;;;1.08;0.70;;;13.90;99.90;;;;;;5066156;28;20024;-65
2023/10/14 12:58:12;;;;;;;1.35;0.80;;;14.00;99.90;;;;;;5061922;28;20021;-65
2023/10/14 13:00:39;;;;;;;2.15;0.80;;;13.90;99.90;;;;;;5058944;28;20078;-66
2023/10/14 13:03:09;;;;;;;1.10;0.80;;;14.00;99.90;;;;;;5051285;28;20033;-66
2023/10/14 13:05:36;;;;;;;0.65;0.50;;;13.80;99.90;;;;;;5061427;28;20094;-65
2023/10/14 13:08:02;;;;;;;0.90;0.63;;;13.70;99.90;;;;;;5054183;28;20025;-65
2023/10/14 13:10:28;;;;;;;0.85;0.65;;;13.70;99.90;;;;;;5062516;28;20444;-65
2023/10/14 13:12:58;;;;;;;1.80;0.50;;;13.70;99.90;;;;;;5047626;28;20037;-66
2023/10/14 13:15:29;;;;;;;0.70;0.70;;;13.70;99.90;;;;;;5052337;28;20033;-66
2023/10/14 13:18:00;;;;;;;1.75;0.50;;;13.70;99.90;;;;;;5053388;28;20037;-65